Time;durP1;ratioP1;P1;durP2;ratioP2;P2;SDS_P1;SDS_P2;PMS_P1;PMS_P2;Temp;Humidity;BMP_temperature;BMP_pressure;BME280_temperature;BME280_humidity;BME280_pressure;Samples;Min_cycle;Max_cycle;Signal;HPM_P1;HPM_P2
2022/08/30 00:01:22;;;;;;;;;;;;;;;25.48;82.56;99370.91;5074749;28;19963;-44
2022/08/30 00:03:47;;;;;;;;;;;;;;;25.39;83.92;99375.16;5074009;28;19935;-45
2022/08/30 00:06:13;;;;;;;;;;;;;;;25.50;83.50;99371.59;5070276;28;20498;-43
2022/08/30 00:08:39;;;;;;;;;;;;;;;25.62;82.85;99374.94;5073824;28;19932;-44
2022/08/30 00:11:07;;;;;;;;;;;;;;;25.17;82.91;99364.78;5073996;28;19919;-44
2022/08/30 00:13:32;;;;;;;;;;;;;;;25.34;83.73;99372.09;5070650;28;20777;-44
2022/08/30 00:15:57;;;;;;;;;;;;;;;25.49;83.24;99375.19;5070566;28;19927;-45
2022/08/30 00:18:23;;;;;;;;;;;;;;;25.49;82.85;99375.19;5070121;28;19927;-44
2022/08/30 00:20:48;;;;;;;;;;;;;;;25.48;82.93;99375.31;5074033;28;20357;-44
2022/08/30 00:23:14;;;;;;;;;;;;;;;25.34;83.47;99372.09;5072577;28;19923;-44
2022/08/30 00:25:40;;;;;;;;;;;;;;;25.22;84.48;99367.88;5072246;28;19926;-45
2022/08/30 00:28:05;;;;;;;;;;;;;;;25.34;83.59;99366.84;5071618;28;19950;-45
2022/08/30 00:30:30;;;;;;;;;;;;;;;25.31;83.38;99364.44;5072614;28;19982;-45
2022/08/30 00:32:56;;;;;;;;;;;;;;;25.16;84.33;99371.88;5071176;28;19916;-44
2022/08/30 00:35:21;;;;;;;;;;;;;;;24.89;86.07;99372.44;5073467;28;19920;-44
2022/08/30 00:37:47;;;;;;;;;;;;;;;24.91;86.03;99365.25;5073456;28;20024;-45
2022/08/30 00:40:14;;;;;;;;;;;;;;;25.01;85.58;99360.84;5072977;28;19982;-45
2022/08/30 00:42:40;;;;;;;;;;;;;;;24.53;86.64;99360.59;5072170;28;19926;-44
2022/08/30 00:45:25;;;;;;;;;;;;;;;24.98;86.26;99355.84;5073719;28;19920;-44
2022/08/30 00:47:51;;;;;;;;;;;;;;;24.59;87.07;99370.63;5073702;28;19961;-44
2022/08/30 00:50:18;;;;;;;;;;;;;;;23.86;92.67;99385.44;5072473;28;19942;-44
2022/08/30 00:52:43;;;;;;;;;;;;;;;24.41;89.67;99378.25;5073390;28;20034;-44
2022/08/30 00:55:09;;;;;;;;;;;;;;;24.65;87.29;99377.16;5073039;28;19924;-44
2022/08/30 00:57:34;;;;;;;;;;;;;;;24.82;87.09;99377.41;5073107;28;19951;-44
2022/08/30 01:00:00;;;;;;;;;;;;;;;24.72;87.29;99376.50;5073091;28;19978;-44
2022/08/30 01:02:25;;;;;;;;;;;;;;;24.66;87.95;99368.31;5072166;28;19951;-44
2022/08/30 01:04:50;;;;;;;;;;;;;;;24.69;87.85;99368.03;5036922;28;19927;-44
2022/08/30 01:07:16;;;;;;;;;;;;;;;24.50;88.20;99374.03;5054723;28;19916;-44
2022/08/30 01:09:42;;;;;;;;;;;;;;;24.46;89.19;99383.94;5072377;28;19931;-44
2022/08/30 01:12:07;;;;;;;;;;;;;;;24.53;88.52;99379.88;5053643;28;19916;-44
2022/08/30 01:14:33;;;;;;;;;;;;;;;24.25;88.89;99378.69;5072132;28;19927;-44
2022/08/30 01:17:00;;;;;;;;;;;;;;;24.38;88.58;99379.34;5071188;28;19920;-44
2022/08/30 01:19:42;;;;;;;;;;;;;;;24.12;86.97;99373.59;5056195;28;19993;-44
2022/08/30 01:22:28;;;;;;;;;;;;;;;24.14;88.70;99379.56;5052919;28;19955;-44
2022/08/30 01:24:54;;;;;;;;;;;;;;;24.13;88.64;99382.31;5029867;28;20710;-44
2022/08/30 01:27:19;;;;;;;;;;;;;;;24.36;88.72;99377.81;5054436;28;20002;-44
2022/08/30 01:29:44;;;;;;;;;;;;;;;24.35;88.32;99374.31;5053160;28;19920;-44
2022/08/30 01:32:17;;;;;;;;;;;;;;;24.08;88.11;99376.59;5072140;28;19955;-44
2022/08/30 01:34:42;;;;;;;;;;;;;;;23.09;92.99;99379.16;5071889;28;19922;-44
2022/08/30 01:37:08;;;;;;;;;;;;;;;23.75;90.89;99375.75;5073175;28;20525;-43
2022/08/30 01:39:33;;;;;;;;;;;;;;;24.06;90.34;99379.34;5071020;28;19916;-44
2022/08/30 01:41:58;;;;;;;;;;;;;;;24.16;89.86;99380.28;5052534;28;19928;-44
2022/08/30 01:44:23;;;;;;;;;;;;;;;24.18;89.47;99377.53;5071586;28;19912;-44
2022/08/30 01:46:48;;;;;;;;;;;;;;;23.49;89.15;99380.44;5071759;28;19923;-44
2022/08/30 01:49:15;;;;;;;;;;;;;;;22.31;96.41;99395.59;5072367;28;20499;-44
2022/08/30 01:51:40;;;;;;;;;;;;;;;22.14;100.00;99397.63;5071326;28;19985;-44
2022/08/30 01:54:06;;;;;;;;;;;;;;;23.27;96.07;99379.53;5069025;28;21000;-43
2022/08/30 01:56:31;;;;;;;;;;;;;;;23.72;92.92;99375.97;5052809;28;19920;-44
2022/08/30 01:58:57;;;;;;;;;;;;;;;23.76;92.28;99377.41;5052444;28;19920;-44
2022/08/30 02:01:23;;;;;;;;;;;;;;;23.66;92.39;99387.81;5054332;28;20392;-43
2022/08/30 02:03:48;;;;;;;;;;;;;;;23.20;94.57;99388.84;5044183;28;19924;-43
2022/08/30 02:06:15;;;;;;;;;;;;;;;23.29;92.55;99379.41;5070520;28;20512;-43
2022/08/30 02:08:40;;;;;;;;;;;;;;;23.53;92.73;99379.25;5071645;28;20810;-44
2022/08/30 02:11:06;;;;;;;;;;;;;;;23.90;92.33;99381.56;5069382;28;19920;-44
2022/08/30 02:13:31;;;;;;;;;;;;;;;23.84;92.10;99379.44;5072560;28;20897;-44
2022/08/30 02:15:57;;;;;;;;;;;;;;;23.69;93.27;99381.47;5072018;28;19920;-44
2022/08/30 02:18:23;;;;;;;;;;;;;;;23.91;92.25;99380.63;5072523;28;20851;-43
2022/08/30 02:20:48;;;;;;;;;;;;;;;23.89;90.73;99377.28;5073183;28;19912;-43
2022/08/30 02:23:13;;;;;;;;;;;;;;;24.08;90.92;99381.84;5072390;28;20380;-44
2022/08/30 02:25:39;;;;;;;;;;;;;;;24.00;91.10;99374.59;5070289;28;19924;-44
2022/08/30 02:28:05;;;;;;;;;;;;;;;23.85;91.58;99386.38;5072149;28;19943;-43
2022/08/30 02:30:30;;;;;;;;;;;;;;;23.83;91.16;99388.28;5073254;28;21095;-44
2022/08/30 02:32:55;;;;;;;;;;;;;;;23.15;95.19;99402.34;5073955;28;20320;-44
2022/08/30 02:35:20;;;;;;;;;;;;;;;23.56;93.69;99392.13;5075816;28;20319;-44
2022/08/30 02:37:46;;;;;;;;;;;;;;;23.42;93.04;99387.97;5075027;28;19942;-44
2022/08/30 02:40:11;;;;;;;;;;;;;;;23.65;92.36;99391.44;5074799;28;20895;-43
2022/08/30 02:42:36;;;;;;;;;;;;;;;23.54;93.18;99389.66;5074825;28;20535;-44
2022/08/30 02:45:01;;;;;;;;;;;;;;;23.27;95.13;99392.66;5076141;28;19919;-43
2022/08/30 02:47:27;;;;;;;;;;;;;;;23.35;95.52;99385.00;5075244;28;19941;-44
2022/08/30 02:49:52;;;;;;;;;;;;;;;23.50;94.21;99379.50;5075303;28;19924;-44
2022/08/30 02:52:18;;;;;;;;;;;;;;;23.57;93.85;99380.69;5074642;28;19973;-43
2022/08/30 02:54:44;;;;;;;;;;;;;;;23.36;94.78;99376.16;5074808;28;19924;-43
2022/08/30 02:57:09;;;;;;;;;;;;;;;23.64;94.34;99367.88;5074912;28;19930;-43
2022/08/30 02:59:36;;;;;;;;;;;;;;;23.62;93.75;99370.63;5072434;28;19974;-44
2022/08/30 03:02:02;;;;;;;;;;;;;;;23.55;92.27;99369.44;5075903;28;19995;-43
2022/08/30 03:04:27;;;;;;;;;;;;;;;23.74;92.19;99366.16;5071939;28;20069;-43
2022/08/30 03:06:52;;;;;;;;;;;;;;;23.82;91.37;99360.31;5074877;28;19920;-43
2022/08/30 03:09:17;;;;;;;;;;;;;;;23.44;91.45;99361.56;5073840;28;19924;-44
2022/08/30 03:11:43;;;;;;;;;;;;;;;22.74;96.47;99369.56;5075890;28;20931;-44
2022/08/30 03:14:08;;;;;;;;;;;;;;;23.27;94.36;99361.13;5073283;28;19963;-43
2022/08/30 03:16:34;;;;;;;;;;;;;;;22.42;96.95;99358.91;5074768;28;19966;-44
2022/08/30 03:18:59;;;;;;;;;;;;;;;22.93;96.94;99371.59;5074975;28;19920;-43
2022/08/30 03:21:24;;;;;;;;;;;;;;;22.90;96.90;99369.22;5074630;28;19972;-43
2022/08/30 03:23:49;;;;;;;;;;;;;;;22.91;95.66;99370.88;5075025;28;20343;-44
2022/08/30 03:26:15;;;;;;;;;;;;;;;23.23;94.56;99362.31;5074056;28;19916;-44
2022/08/30 03:28:41;;;;;;;;;;;;;;;23.04;94.27;99362.09;5074122;28;19970;-43
2022/08/30 03:31:07;;;;;;;;;;;;;;;23.33;93.52;99359.78;5075126;28;19919;-43
2022/08/30 03:33:32;;;;;;;;;;;;;;;23.24;94.10;99368.41;5075267;28;20408;-43
2022/08/30 03:35:57;;;;;;;;;;;;;;;23.23;92.81;99364.94;5071149;28;19920;-43
2022/08/30 03:38:23;;;;;;;;;;;;;;;23.33;93.88;99371.16;5073840;28;19919;-44
2022/08/30 03:40:48;;;;;;;;;;;;;;;22.75;92.50;99368.59;5055797;28;20152;-44
2022/08/30 03:43:13;;;;;;;;;;;;;;;23.13;93.39;99369.25;5075680;28;19920;-44
2022/08/30 03:45:39;;;;;;;;;;;;;;;23.32;94.17;99366.84;5073950;28;20396;-43
2022/08/30 03:48:04;;;;;;;;;;;;;;;23.25;94.06;99367.47;5074138;28;19916;-44
2022/08/30 03:50:29;;;;;;;;;;;;;;;23.13;94.90;99364.00;5073912;28;19967;-44
2022/08/30 03:52:55;;;;;;;;;;;;;;;23.07;94.40;99360.06;5073031;28;19920;-44
2022/08/30 03:55:20;;;;;;;;;;;;;;;23.05;93.51;99355.88;5072955;28;20007;-43
2022/08/30 03:57:45;;;;;;;;;;;;;;;22.91;94.20;99349.88;5055760;28;19948;-44
2022/08/30 04:00:11;;;;;;;;;;;;;;;23.01;94.31;99351.81;5074886;28;19930;-44
2022/08/30 04:02:37;;;;;;;;;;;;;;;22.98;94.46;99355.50;5075542;28;19916;-43
2022/08/30 04:05:02;;;;;;;;;;;;;;;22.49;97.35;99360.09;5075858;28;19999;-43
2022/08/30 04:07:27;;;;;;;;;;;;;;;22.24;97.25;99368.97;5075842;28;19923;-43
2022/08/30 04:09:53;;;;;;;;;;;;;;;22.57;97.36;99366.56;5076137;28;19935;-44
2022/08/30 04:12:18;;;;;;;;;;;;;;;22.62;95.57;99364.41;5075491;28;20011;-43
2022/08/30 04:14:43;;;;;;;;;;;;;;;22.61;96.84;99375.88;5076595;28;20019;-43
2022/08/30 04:17:09;;;;;;;;;;;;;;;22.55;96.66;99372.75;5072825;28;19923;-43
2022/08/30 04:19:34;;;;;;;;;;;;;;;22.66;97.80;99371.09;5071597;28;19935;-43
2022/08/30 04:21:59;;;;;;;;;;;;;;;22.72;97.14;99375.91;5076040;28;19963;-43
2022/08/30 04:24:25;;;;;;;;;;;;;;;22.61;96.98;99375.88;5057978;28;19967;-43
2022/08/30 04:26:50;;;;;;;;;;;;;;;22.46;98.44;99378.69;5075366;28;19926;-43
2022/08/30 04:29:16;;;;;;;;;;;;;;;22.56;97.30;99378.84;5072902;28;19930;-43
2022/08/30 04:31:42;;;;;;;;;;;;;;;22.44;97.41;99378.00;5054689;28;20014;-43
2022/08/30 04:34:08;;;;;;;;;;;;;;;22.59;96.93;99369.91;5073495;28;19926;-43
2022/08/30 04:36:33;;;;;;;;;;;;;;;22.30;97.00;99370.28;5072110;28;19977;-43
2022/08/30 04:38:59;;;;;;;;;;;;;;;22.42;97.22;99369.41;5074770;28;19923;-44
2022/08/30 04:41:24;;;;;;;;;;;;;;;22.46;97.85;99388.34;5072714;28;19974;-43
2022/08/30 04:43:49;;;;;;;;;;;;;;;22.36;96.77;99379.50;5073888;28;19927;-44
2022/08/30 04:46:15;;;;;;;;;;;;;;;22.19;98.49;99385.97;5073760;28;19927;-43
2022/08/30 04:48:40;;;;;;;;;;;;;;;22.14;99.87;99397.63;5071547;28;19924;-43
2022/08/30 04:51:06;;;;;;;;;;;;;;;22.32;99.67;99399.88;5071829;28;19927;-43
2022/08/30 04:53:32;;;;;;;;;;;;;;;22.07;99.63;99399.03;5073466;28;20434;-43
2022/08/30 04:55:57;;;;;;;;;;;;;;;22.41;98.55;99393.13;5056496;28;19916;-43
2022/08/30 04:58:22;;;;;;;;;;;;;;;22.41;98.21;99391.31;5053565;28;20038;-43
2022/08/30 05:00:47;;;;;;;;;;;;;;;22.22;99.71;99396.28;5072405;28;19920;-43
2022/08/30 05:03:13;;;;;;;;;;;;;;;22.36;99.88;99396.09;5074311;28;19969;-43
2022/08/30 05:05:38;;;;;;;;;;;;;;;22.25;96.88;99393.41;5071221;28;19924;-43
2022/08/30 05:08:04;;;;;;;;;;;;;;;22.41;99.06;99398.38;5055101;28;19920;-44
2022/08/30 05:10:29;;;;;;;;;;;;;;;22.22;99.95;99404.16;5055683;28;20356;-43
2022/08/30 05:12:54;;;;;;;;;;;;;;;22.06;100.00;99420.16;5073227;28;20807;-43
2022/08/30 05:15:21;;;;;;;;;;;;;;;21.69;100.00;99423.63;5074138;28;19985;-43
2022/08/30 05:17:46;;;;;;;;;;;;;;;22.00;100.00;99410.94;5065240;28;19916;-43
2022/08/30 05:20:11;;;;;;;;;;;;;;;22.26;100.00;99416.06;5073716;28;19930;-43
2022/08/30 05:22:40;;;;;;;;;;;;;;;22.46;100.00;99412.81;5071741;28;19916;-45
2022/08/30 05:25:05;;;;;;;;;;;;;;;22.51;100.00;99410.69;5073596;28;20030;-43
2022/08/30 05:27:31;;;;;;;;;;;;;;;22.32;100.00;99410.38;5054105;28;19916;-43
2022/08/30 05:29:56;;;;;;;;;;;;;;;22.49;100.00;99401.28;5073078;28;19926;-43
2022/08/30 05:32:21;;;;;;;;;;;;;;;22.00;100.00;99407.47;5073927;28;20727;-43
2022/08/30 05:34:47;;;;;;;;;;;;;;;21.98;98.83;99401.50;5073495;28;19972;-43
2022/08/30 05:37:12;;;;;;;;;;;;;;;22.54;100.00;99405.22;5072580;28;19942;-43
2022/08/30 05:39:37;;;;;;;;;;;;;;;22.81;100.00;99406.69;5072968;28;19916;-44
2022/08/30 05:42:02;;;;;;;;;;;;;;;22.59;97.64;99404.84;5072536;28;20022;-43
2022/08/30 05:44:28;;;;;;;;;;;;;;;23.13;100.00;99417.38;5073844;28;20023;-43
2022/08/30 05:46:53;;;;;;;;;;;;;;;23.12;100.00;99409.63;5072610;28;19916;-43
2022/08/30 05:49:18;;;;;;;;;;;;;;;22.60;99.15;99418.81;5072802;28;20033;-43
2022/08/30 05:51:43;;;;;;;;;;;;;;;22.43;100.00;99418.28;5073255;28;19987;-43
2022/08/30 05:54:09;;;;;;;;;;;;;;;22.54;100.00;99420.94;5072237;28;20562;-43
2022/08/30 05:56:35;;;;;;;;;;;;;;;22.72;100.00;99417.91;5071803;28;19920;-44
2022/08/30 05:59:02;;;;;;;;;;;;;;;22.96;100.00;99421.25;5072950;28;19923;-43
2022/08/30 06:01:31;;;;;;;;;;;;;;;23.15;100.00;99409.41;5073250;28;19963;-43
2022/08/30 06:03:58;;;;;;;;;;;;;;;22.70;100.00;99412.75;5073250;28;19916;-43
2022/08/30 06:06:23;;;;;;;;;;;;;;;23.19;100.00;99416.06;5051806;28;19919;-43
2022/08/30 06:08:48;;;;;;;;;;;;;;;23.52;100.00;99409.13;5071007;28;19935;-44
2022/08/30 06:11:14;;;;;;;;;;;;;;;23.62;100.00;99417.13;5072149;28;20023;-43
2022/08/30 06:13:40;;;;;;;;;;;;;;;23.58;100.00;99417.38;5072506;28;20020;-43
2022/08/30 06:16:05;;;;;;;;;;;;;;;23.82;100.00;99418.19;5071965;28;19923;-44
2022/08/30 06:18:30;;;;;;;;;;;;;;;23.75;99.65;99418.66;5071251;28;20010;-44
2022/08/30 06:20:55;;;;;;;;;;;;;;;23.45;100.00;99411.41;5072031;28;19987;-44
2022/08/30 06:23:21;;;;;;;;;;;;;;;22.42;100.00;99424.50;5071268;28;19970;-43
2022/08/30 06:25:46;;;;;;;;;;;;;;;23.09;100.00;99420.38;5071625;28;20311;-43
2022/08/30 06:28:12;;;;;;;;;;;;;;;23.50;100.00;99425.00;5072422;28;20415;-44
2022/08/30 06:30:38;;;;;;;;;;;;;;;23.54;100.00;99421.19;5072165;28;20380;-43
2022/08/30 06:33:04;;;;;;;;;;;;;;;24.00;100.00;99421.97;5072909;28;19922;-44
2022/08/30 06:35:31;;;;;;;;;;;;;;;24.01;100.00;99423.63;5071446;28;20827;-43
2022/08/30 06:37:57;;;;;;;;;;;;;;;24.62;99.01;99417.75;5072035;28;19916;-45
2022/08/30 06:40:22;;;;;;;;;;;;;;;22.73;100.00;99440.56;5072254;28;19922;-44
2022/08/30 06:42:47;;;;;;;;;;;;;;;23.89;100.00;99422.00;5072140;28;20093;-44
2022/08/30 06:45:14;;;;;;;;;;;;;;;23.94;100.00;99428.53;5071037;28;20284;-43
2022/08/30 06:47:40;;;;;;;;;;;;;;;22.68;100.00;99446.16;5053092;28;20233;-43
2022/08/30 06:50:05;;;;;;;;;;;;;;;22.84;100.00;99445.84;5071957;28;21173;-44
2022/08/30 06:52:30;;;;;;;;;;;;;;;23.83;100.00;99438.25;5072130;28;19919;-44
2022/08/30 06:54:57;;;;;;;;;;;;;;;23.97;100.00;99437.97;5070593;28;19920;-43
2022/08/30 06:57:23;;;;;;;;;;;;;;;24.37;99.34;99438.19;5071091;28;19923;-44
2022/08/30 06:59:48;;;;;;;;;;;;;;;24.39;100.00;99435.44;5072509;28;19920;-44
2022/08/30 07:02:13;;;;;;;;;;;;;;;23.74;100.00;99443.31;5073248;28;19922;-44
2022/08/30 07:04:38;;;;;;;;;;;;;;;24.16;100.00;99443.44;5071988;28;19920;-43
2022/08/30 07:07:04;;;;;;;;;;;;;;;22.71;100.00;99453.81;5071415;28;19935;-44
2022/08/30 07:09:29;;;;;;;;;;;;;;;23.09;100.00;99442.22;5069546;28;19973;-44
2022/08/30 07:11:54;;;;;;;;;;;;;;;22.74;100.00;99452.75;5071229;28;19977;-44
2022/08/30 07:14:19;;;;;;;;;;;;;;;22.81;100.00;99448.72;5071788;28;20373;-44
2022/08/30 07:16:45;;;;;;;;;;;;;;;22.65;100.00;99454.28;5073486;28;20423;-43
2022/08/30 07:19:10;;;;;;;;;;;;;;;23.20;100.00;99438.78;5074971;28;20317;-44
2022/08/30 07:21:37;;;;;;;;;;;;;;;24.60;100.00;99436.31;5075771;28;19981;-44
2022/08/30 07:24:03;;;;;;;;;;;;;;;23.11;100.00;99455.25;5075611;28;20000;-45
2022/08/30 07:26:48;;;;;;;;;;;;;;;23.44;100.00;99457.03;5075281;28;19919;-45
2022/08/30 07:29:14;;;;;;;;;;;;;;;22.63;100.00;99471.94;5075869;28;19920;-45
2022/08/30 07:31:39;;;;;;;;;;;;;;;23.63;100.00;99451.19;5075622;28;19923;-44
2022/08/30 07:34:05;;;;;;;;;;;;;;;24.46;100.00;99455.03;5075606;28;19919;-44
2022/08/30 07:36:31;;;;;;;;;;;;;;;23.15;100.00;99467.19;5075125;28;20018;-45
2022/08/30 07:38:56;;;;;;;;;;;;;;;21.91;100.00;99474.53;5075265;28;19916;-45
2022/08/30 07:41:29;;;;;;;;;;;;;;;23.90;100.00;99453.44;5075714;28;20034;-44
2022/08/30 07:43:54;;;;;;;;;;;;;;;23.27;100.00;99455.72;5056942;28;19935;-44
2022/08/30 07:46:20;;;;;;;;;;;;;;;24.20;100.00;99450.13;5075634;28;20034;-44
2022/08/30 07:48:45;;;;;;;;;;;;;;;24.97;100.00;99435.84;5074503;28;19928;-45
2022/08/30 07:51:11;;;;;;;;;;;;;;;25.04;100.00;99437.03;5075698;28;19913;-44
2022/08/30 07:53:36;;;;;;;;;;;;;;;24.62;100.00;99444.94;5073998;28;19920;-45
2022/08/30 07:56:02;;;;;;;;;;;;;;;24.51;100.00;99447.63;5074482;28;20018;-44
2022/08/30 07:58:28;;;;;;;;;;;;;;;25.97;100.00;99442.22;5074708;28;19963;-44
2022/08/30 08:00:53;;;;;;;;;;;;;;;24.27;100.00;99452.22;5074563;28;20033;-44
2022/08/30 08:03:18;;;;;;;;;;;;;;;25.05;100.00;99433.41;5075423;28;20392;-44
2022/08/30 08:05:44;;;;;;;;;;;;;;;24.29;100.00;99445.91;5074079;28;19916;-44
2022/08/30 08:08:09;;;;;;;;;;;;;;;24.87;100.00;99448.16;5074970;28;19927;-44
2022/08/30 08:10:36;;;;;;;;;;;;;;;23.87;100.00;99448.41;5074801;28;19927;-44
2022/08/30 08:13:01;;;;;;;;;;;;;;;24.12;100.00;99452.53;5055963;28;20528;-44
2022/08/30 08:15:27;;;;;;;;;;;;;;;23.58;100.00;99453.31;5075517;28;20010;-45
2022/08/30 08:17:52;;;;;;;;;;;;;;;25.25;100.00;99446.72;5056243;28;19941;-45
2022/08/30 08:20:17;;;;;;;;;;;;;;;23.99;100.00;99457.97;5074792;28;20407;-45
2022/08/30 08:22:42;;;;;;;;;;;;;;;24.46;100.00;99462.94;5075313;28;19916;-44
2022/08/30 08:25:08;;;;;;;;;;;;;;;24.73;100.00;99459.00;5074860;28;20018;-44
2022/08/30 08:27:33;;;;;;;;;;;;;;;24.49;100.00;99461.88;5072961;28;20014;-44
2022/08/30 08:29:58;;;;;;;;;;;;;;;26.10;100.00;99453.38;5074624;28;20435;-44
2022/08/30 08:32:23;;;;;;;;;;;;;;;25.69;100.00;99451.72;5074525;28;20006;-44
2022/08/30 08:34:49;;;;;;;;;;;;;;;25.20;100.00;99447.13;5075312;28;20250;-44
2022/08/30 08:37:14;;;;;;;;;;;;;;;25.64;100.00;99441.59;5073669;28;20009;-45
2022/08/30 08:39:39;;;;;;;;;;;;;;;25.80;100.00;99451.63;5075303;28;19927;-44
2022/08/30 08:42:08;;;;;;;;;;;;;;;26.60;97.49;99447.97;5075063;28;20011;-44
2022/08/30 08:45:01;;;;;;;;;;;;;;;24.88;100.00;99462.16;5055281;28;19943;-45
2022/08/30 08:47:40;;;;;;;;;;;;;;;25.95;98.90;99455.56;5043502;28;19920;-45
2022/08/30 08:50:08;;;;;;;;;;;;;;;26.92;96.45;99446.81;5074401;28;19920;-44
2022/08/30 08:55:20;;;;;;;;;;;;;;;27.91;91.70;99446.28;5059316;28;19957;-44
2022/08/30 08:57:45;;;;;;;;;;;;;;;27.35;93.93;99452.53;5055879;28;19916;-46
2022/08/30 09:00:11;;;;;;;;;;;;;;;25.81;96.60;99462.03;5074757;28;19926;-45
2022/08/30 09:02:38;;;;;;;;;;;;;;;24.71;100.00;99472.31;5073506;28;19916;-45
2022/08/30 09:05:04;;;;;;;;;;;;;;;26.69;99.82;99455.06;5056700;28;20011;-45
2022/08/30 09:07:31;;;;;;;;;;;;;;;27.71;93.94;99449.03;5072832;28;19920;-45
2022/08/30 09:09:58;;;;;;;;;;;;;;;27.08;92.34;99457.59;5056166;28;19920;-45
2022/08/30 09:12:23;;;;;;;;;;;;;;;25.90;99.19;99456.94;5056272;28;19916;-45
2022/08/30 09:14:53;;;;;;;;;;;;;;;28.38;90.45;99437.28;5074096;28;20392;-45
2022/08/30 09:17:19;;;;;;;;;;;;;;;26.86;93.41;99447.38;5072350;28;20182;-47
2022/08/30 09:19:50;;;;;;;;;;;;;;;26.97;95.00;99441.91;5073995;28;20389;-44
2022/08/30 09:22:15;;;;;;;;;;;;;;;27.53;91.42;99443.69;5073071;28;19993;-45
2022/08/30 09:24:44;;;;;;;;;;;;;;;27.26;88.43;99441.03;5073523;28;19915;-46
2022/08/30 09:27:14;;;;;;;;;;;;;;;27.08;93.99;99439.09;5073636;28;19967;-45
2022/08/30 09:29:48;;;;;;;;;;;;;;;27.25;93.47;99442.00;5073267;28;20444;-46
2022/08/30 09:32:17;;;;;;;;;;;;;;;26.43;95.68;99453.91;5074238;28;20070;-46
2022/08/30 09:34:42;;;;;;;;;;;;;;;26.81;95.83;99446.97;5054878;28;20385;-45
2022/08/30 09:37:07;;;;;;;;;;;;;;;27.36;93.65;99449.75;5073572;28;19923;-46
2022/08/30 09:39:34;;;;;;;;;;;;;;;28.18;90.22;99440.09;5055043;28;19978;-45
2022/08/30 09:42:11;;;;;;;;;;;;;;;26.91;92.09;99448.63;5055183;28;19959;-45
2022/08/30 09:44:37;;;;;;;;;;;;;;;27.50;88.58;99437.84;5054686;28;20003;-46
2022/08/30 09:47:02;;;;;;;;;;;;;;;27.28;91.54;99436.44;5062377;28;19998;-45
2022/08/30 09:49:28;;;;;;;;;;;;;;;27.10;91.88;99437.16;5070717;28;20744;-45
2022/08/30 09:52:06;;;;;;;;;;;;;;;26.45;92.62;99446.69;5072138;28;20120;-46
2022/08/30 09:54:34;;;;;;;;;;;;;;;27.06;90.53;99434.94;5054112;28;19920;-46
2022/08/30 09:57:11;;;;;;;;;;;;;;;27.64;90.46;99424.09;5053607;28;19967;-45
2022/08/30 09:59:37;;;;;;;;;;;;;;;28.76;86.28;99431.66;5042592;28;19931;-45
2022/08/30 10:02:05;;;;;;;;;;;;;;;27.78;89.62;99429.88;5072479;28;19951;-45
2022/08/30 10:04:43;;;;;;;;;;;;;;;28.78;85.73;99424.38;5073129;28;19912;-48
2022/08/30 10:07:11;;;;;;;;;;;;;;;29.54;82.98;99428.09;5054433;28;19916;-46
2022/08/30 10:09:46;;;;;;;;;;;;;;;28.06;84.30;99422.78;5072705;28;19920;-46
2022/08/30 10:12:14;;;;;;;;;;;;;;;28.59;86.71;99423.75;5055444;28;20564;-45
2022/08/30 10:15:00;;;;;;;;;;;;;;;28.37;87.44;99420.53;5072674;28;19920;-47
2022/08/30 10:17:25;;;;;;;;;;;;;;;29.76;79.50;99408.09;5071907;28;19916;-46
2022/08/30 10:20:03;;;;;;;;;;;;;;;27.93;84.21;99413.38;5073165;28;20001;-46
2022/08/30 10:22:36;;;;;;;;;;;;;;;27.66;85.40;99408.09;5073012;28;19969;-45
2022/08/30 10:25:04;;;;;;;;;;;;;;;29.47;81.53;99403.19;5072548;28;19923;-47
2022/08/30 10:27:33;;;;;;;;;;;;;;;29.69;79.54;99403.59;5071537;28;19930;-48
2022/08/30 10:30:00;;;;;;;;;;;;;;;28.24;81.87;99409.53;5068887;28;19920;-45
2022/08/30 10:32:27;;;;;;;;;;;;;;;28.34;82.12;99404.97;5050196;28;19961;-46
2022/08/30 10:35:06;;;;;;;;;;;;;;;29.11;78.60;99410.50;5068990;28;19977;-45
2022/08/30 10:37:33;;;;;;;;;;;;;;;28.32;84.33;99405.13;5044398;28;20407;-46
2022/08/30 10:41:11;;;;;;;;;;;;;;;28.64;84.62;99401.06;5068662;28;19930;-46
2022/08/30 10:42:48;;;;;;;;;;;;;;;28.12;87.07;99416.84;5069353;28;20086;-46
2022/08/30 10:45:14;;;;;;;;;;;;;;;29.17;80.60;99401.91;5052277;28;19919;-47
2022/08/30 10:47:41;;;;;;;;;;;;;;;29.35;78.60;99404.47;5051790;28;20350;-45
2022/08/30 10:50:12;;;;;;;;;;;;;;;28.92;81.39;99404.41;5051304;28;19964;-45
2022/08/30 10:52:40;;;;;;;;;;;;;;;28.33;83.30;99409.44;5058212;28;19924;-46
2022/08/30 10:55:07;;;;;;;;;;;;;;;28.11;83.41;99407.25;5056859;28;19927;-48
2022/08/30 10:57:33;;;;;;;;;;;;;;;30.78;74.46;99395.34;5076190;28;19929;-46
2022/08/30 11:00:18;;;;;;;;;;;;;;;30.10;73.61;99398.38;5075858;28;20389;-45
2022/08/30 11:02:55;;;;;;;;;;;;;;;29.39;76.55;99405.81;5061188;28;19916;-45
2022/08/30 11:05:42;;;;;;;;;;;;;;;29.24;79.98;99400.28;5076480;28;20363;-48
2022/08/30 11:08:08;;;;;;;;;;;;;;;31.61;69.74;99399.44;5056442;28;19915;-46
2022/08/30 11:10:43;;;;;;;;;;;;;;;29.57;74.57;99397.75;5075604;28;20098;-46
2022/08/30 11:13:12;;;;;;;;;;;;;;;30.75;74.98;99397.53;5074039;28;19920;-47
2022/08/30 11:15:56;;;;;;;;;;;;;;;31.17;70.08;99388.44;5056784;28;19942;-46
2022/08/30 11:18:21;;;;;;;;;;;;;;;31.18;69.85;99392.75;5075554;28;19984;-46
2022/08/30 11:20:49;;;;;;;;;;;;;;;30.92;70.74;99393.03;5055047;28;19915;-47
2022/08/30 11:23:17;;;;;;;;;;;;;;;30.82;64.75;99399.34;5055859;28;20384;-46
2022/08/30 11:25:48;;;;;;;;;;;;;;;31.81;65.32;99386.47;5070871;28;19919;-46
2022/08/30 11:28:22;;;;;;;;;;;;;;;32.84;58.38;99379.78;5074303;28;19916;-46
2022/08/30 11:30:48;;;;;;;;;;;;;;;31.73;64.73;99389.19;5070634;28;19916;-47
2022/08/30 11:33:27;;;;;;;;;;;;;;;32.13;61.93;99387.25;5073993;28;19923;-49
2022/08/30 11:35:52;;;;;;;;;;;;;;;32.44;59.13;99379.16;5073284;28;19969;-48
2022/08/30 11:38:41;;;;;;;;;;;;;;;32.40;60.68;99383.19;5073427;28;19920;-48
2022/08/30 11:41:11;;;;;;;;;;;;;;;31.70;66.75;99372.72;5060505;28;19916;-46
2022/08/30 11:43:38;;;;;;;;;;;;;;;31.32;64.49;99391.22;5073045;28;19931;-46
2022/08/30 11:46:23;;;;;;;;;;;;;;;32.53;56.91;99371.13;5073612;28;20329;-46
2022/08/30 11:49:07;;;;;;;;;;;;;;;30.29;68.08;99387.47;5073689;28;19927;-46
2022/08/30 11:51:50;;;;;;;;;;;;;;;31.24;64.86;99378.78;5073418;28;20455;-49
2022/08/30 11:54:28;;;;;;;;;;;;;;;31.61;59.24;99370.13;5072376;28;19919;-46
2022/08/30 11:57:10;;;;;;;;;;;;;;;33.04;52.40;99373.91;5069479;28;19970;-47
2022/08/30 11:59:45;;;;;;;;;;;;;;;32.44;57.64;99368.50;5073874;28;20665;-46
2022/08/30 12:02:30;;;;;;;;;;;;;;;31.53;60.86;99370.16;5048488;28;19919;-47
2022/08/30 12:04:56;;;;;;;;;;;;;;;32.62;54.65;99362.84;5072848;28;19920;-47
2022/08/30 12:07:40;;;;;;;;;;;;;;;31.80;59.82;99371.50;5074918;28;19959;-46
2022/08/30 12:10:13;;;;;;;;;;;;;;;32.96;53.59;99363.31;5074714;28;19920;-47
2022/08/30 12:12:43;;;;;;;;;;;;;;;32.82;53.13;99356.97;5055271;28;19922;-47
2022/08/30 12:15:20;;;;;;;;;;;;;;;33.02;54.56;99366.06;5074674;28;19923;-47
2022/08/30 12:20:47;;;;;;;;;;;;;;;33.19;53.27;99361.41;5057437;28;19973;-48
2022/08/30 12:23:17;;;;;;;;;;;;;;;32.12;54.20;99366.16;5073128;28;20471;-48
2022/08/30 12:25:43;;;;;;;;;;;;;;;32.94;48.51;99358.19;5073200;28;19916;-48
2022/08/30 12:28:28;;;;;;;;;;;;;;;34.15;48.74;99355.84;5056943;28;20373;-49
2022/08/30 12:30:53;;;;;;;;;;;;;;;31.82;50.97;99366.00;5074819;28;19927;-46
2022/08/30 12:33:26;;;;;;;;;;;;;;;31.63;55.29;99365.44;5075159;28;19920;-49
2022/08/30 12:35:53;;;;;;;;;;;;;;;33.37;51.04;99346.78;5074951;28;20719;-48
2022/08/30 12:38:19;;;;;;;;;;;;;;;33.88;46.90;99354.78;5074953;28;19969;-46
2022/08/30 12:40:51;;;;;;;;;;;;;;;32.60;51.31;99354.22;5075469;28;20284;-46
2022/08/30 12:43:43;;;;;;;;;;;;;;;32.55;50.10;99342.41;5055532;28;20809;-47
2022/08/30 12:46:10;;;;;;;;;;;;;;;34.84;42.96;99339.06;5070515;28;19916;-50
2022/08/30 12:48:36;;;;;;;;;;;;;;;33.46;49.74;99346.53;5055756;28;19920;-46
2022/08/30 12:51:01;;;;;;;;;;;;;;;32.45;47.55;99338.16;5057344;28;19938;-48